createdAt,value
2018-09-20T00:00:46.993Z,70.97
2018-09-20T00:03:13.304Z,70.90
2018-09-20T00:05:39.615Z,70.80
2018-09-20T00:08:05.935Z,70.80
2018-09-20T00:10:32.251Z,70.63
2018-09-20T00:12:58.574Z,70.52
2018-09-20T00:15:24.896Z,70.79
2018-09-20T00:17:51.209Z,70.66
2018-09-20T00:20:17.529Z,70.67
2018-09-20T00:22:43.844Z,70.64
2018-09-20T00:25:10.167Z,70.69
2018-09-20T00:27:36.481Z,70.90
2018-09-20T00:30:02.797Z,71.01
2018-09-20T00:32:29.111Z,70.96
2018-09-20T00:34:55.423Z,70.91
2018-09-20T00:37:21.737Z,71.03
2018-09-20T00:39:48.052Z,71.07
2018-09-20T00:42:14.356Z,71.60
2018-09-20T00:44:40.667Z,71.36
2018-09-20T00:47:06.982Z,71.51
2018-09-20T00:49:33.298Z,71.54
2018-09-20T00:51:59.606Z,71.44
2018-09-20T00:54:25.932Z,71.61
2018-09-20T00:56:52.243Z,71.58
2018-09-20T00:59:18.557Z,71.60
2018-09-20T01:01:44.878Z,72.04
2018-09-20T01:04:11.193Z,71.98
2018-09-20T01:06:37.509Z,72.10
2018-09-20T01:09:03.825Z,72.56
2018-09-20T01:11:30.146Z,72.62
2018-09-20T01:13:56.465Z,72.83
2018-09-20T01:16:22.776Z,72.96
2018-09-20T01:18:49.087Z,73.45
2018-09-20T01:21:15.402Z,73.66
2018-09-20T01:23:41.711Z,73.65
2018-09-20T01:26:08.031Z,73.85
2018-09-20T01:28:34.347Z,73.76
2018-09-20T01:31:00.662Z,73.72
2018-09-20T01:33:26.983Z,74.54
2018-09-20T01:35:53.305Z,74.61
2018-09-20T01:38:19.617Z,74.39
2018-09-20T01:40:45.926Z,74.31
2018-09-20T01:43:12.235Z,74.24
2018-09-20T01:45:38.560Z,74.10
2018-09-20T01:48:04.885Z,73.96
2018-09-20T01:50:31.200Z,74.51
2018-09-20T01:52:57.518Z,74.58
2018-09-20T01:55:23.827Z,73.66
2018-09-20T01:57:50.156Z,73.35
2018-09-20T02:00:16.461Z,73.83
2018-09-20T02:02:42.777Z,73.72
2018-09-20T02:05:09.135Z,74.20
2018-09-20T02:07:35.443Z,74.48
2018-09-20T02:10:01.758Z,74.43
2018-09-20T02:12:28.082Z,73.76
2018-09-20T02:14:54.383Z,73.64
2018-09-20T02:17:20.703Z,74.13
2018-09-20T02:19:47.019Z,74.04
2018-09-20T02:22:13.338Z,74.95
2018-09-20T02:24:39.654Z,74.89
2018-09-20T02:27:05.969Z,74.22
2018-09-20T02:29:32.286Z,75.06
2018-09-20T02:31:58.601Z,74.51
2018-09-20T02:34:24.919Z,75.05
2018-09-20T02:36:51.240Z,75.58
2018-09-20T02:39:17.558Z,75.02
2018-09-20T02:41:43.874Z,74.97
2018-09-20T02:44:10.197Z,75.18
2018-09-20T02:46:36.514Z,74.44
2018-09-20T02:49:02.842Z,74.75
2018-09-20T02:51:29.151Z,74.83
2018-09-20T02:53:55.467Z,75.36
2018-09-20T02:56:21.781Z,75.59
2018-09-20T02:58:48.170Z,76.14
2018-09-20T03:01:14.456Z,75.89
2018-09-20T03:03:40.732Z,76.20
2018-09-20T03:06:07.060Z,75.33
2018-09-20T03:08:33.379Z,74.60
2018-09-20T03:10:59.704Z,74.14
2018-09-20T03:13:26.026Z,75.03
2018-09-20T03:15:52.345Z,75.52
2018-09-20T03:18:18.687Z,75.79
2018-09-20T03:20:45.032Z,76.34
2018-09-20T03:23:11.345Z,76.76
2018-09-20T03:25:37.662Z,76.81
2018-09-20T03:28:03.975Z,76.90
2018-09-20T03:30:30.385Z,77.12
2018-09-20T03:32:56.619Z,76.92
2018-09-20T03:35:22.934Z,76.70
2018-09-20T03:37:49.250Z,76.58
2018-09-20T03:40:15.570Z,76.25
2018-09-20T03:42:41.894Z,76.52
2018-09-20T03:45:08.210Z,77.18
2018-09-20T03:47:34.532Z,76.77
2018-09-20T03:50:00.847Z,76.12
2018-09-20T03:52:27.166Z,75.90
2018-09-20T03:54:53.485Z,76.29
2018-09-20T03:57:19.802Z,76.80
2018-09-20T03:59:46.114Z,76.82
2018-09-20T04:02:12.432Z,77.01
2018-09-20T04:04:38.785Z,77.09
2018-09-20T04:07:05.120Z,77.32
2018-09-20T04:09:31.467Z,77.52
2018-09-20T04:11:57.743Z,77.55
2018-09-20T04:14:24.064Z,77.82
2018-09-20T04:16:50.381Z,77.91
2018-09-20T04:19:16.693Z,78.09
2018-09-20T04:21:43.007Z,77.99
2018-09-20T04:24:09.325Z,77.07
2018-09-20T04:26:35.641Z,75.96
2018-09-20T04:29:01.958Z,75.45
2018-09-20T04:31:28.272Z,75.08
2018-09-20T04:33:54.575Z,73.86
2018-09-20T04:36:20.896Z,73.20
2018-09-20T04:38:47.212Z,72.31
2018-09-20T04:41:13.529Z,72.18
2018-09-20T04:43:39.847Z,71.43
2018-09-20T04:46:06.166Z,71.15
2018-09-20T04:48:32.475Z,70.51
2018-09-20T04:50:58.787Z,69.53
2018-09-20T04:53:25.109Z,68.66
2018-09-20T04:55:51.419Z,68.56
2018-09-20T04:58:17.768Z,68.25
2018-09-20T05:00:44.051Z,67.35
2018-09-20T05:03:10.359Z,67.04
2018-09-20T05:05:36.674Z,66.29
2018-09-20T05:08:02.979Z,65.96
2018-09-20T05:10:29.293Z,65.99
2018-09-20T05:12:55.598Z,65.46
2018-09-20T05:15:21.919Z,64.77
2018-09-20T05:17:48.230Z,64.02
2018-09-20T05:20:14.608Z,63.23
2018-09-20T05:22:40.864Z,62.46
2018-09-20T05:25:07.191Z,62.15
2018-09-20T05:27:33.552Z,61.86
2018-09-20T05:29:59.860Z,61.91
2018-09-20T05:32:26.179Z,60.63
2018-09-20T05:34:52.535Z,60.74
2018-09-20T05:37:18.856Z,60.08
2018-09-20T05:39:45.167Z,59.31
2018-09-20T05:42:11.487Z,58.66
2018-09-20T05:44:37.807Z,58.59
2018-09-20T05:47:04.122Z,58.32
2018-09-20T05:49:30.443Z,58.79
2018-09-20T05:51:56.805Z,58.26
2018-09-20T05:54:23.131Z,57.21
2018-09-20T05:56:49.440Z,56.54
2018-09-20T05:59:15.779Z,57.13
2018-09-20T06:01:42.078Z,56.81
2018-09-20T06:04:08.393Z,56.96
2018-09-20T06:06:34.711Z,57.15
2018-09-20T06:09:01.028Z,57.36
2018-09-20T06:11:27.335Z,56.94
2018-09-20T06:13:53.654Z,56.22
2018-09-20T06:16:19.969Z,56.51
2018-09-20T06:18:46.322Z,56.40
2018-09-20T06:21:12.631Z,56.60
2018-09-20T06:23:38.993Z,55.82
2018-09-20T06:26:05.344Z,55.71
2018-09-20T06:28:31.700Z,55.67
2018-09-20T06:30:58.047Z,55.46
2018-09-20T06:33:24.369Z,55.28
2018-09-20T06:35:50.688Z,54.89
2018-09-20T06:38:17.049Z,54.59
2018-09-20T06:40:43.377Z,54.49
2018-09-20T06:43:09.689Z,54.23
2018-09-20T06:45:36.007Z,54.21
2018-09-20T06:48:02.316Z,54.60
2018-09-20T06:50:28.671Z,53.75
2018-09-20T06:52:54.945Z,53.33
2018-09-20T06:55:21.310Z,53.31
2018-09-20T06:57:47.623Z,53.70
2018-09-20T07:00:13.998Z,54.19
2018-09-20T07:02:40.315Z,53.46
2018-09-20T07:05:06.665Z,54.55
2018-09-20T07:07:32.969Z,53.51
2018-09-20T07:09:59.290Z,52.09
2018-09-20T07:12:25.630Z,53.16
2018-09-20T07:14:51.984Z,51.93
2018-09-20T07:17:18.293Z,50.78
2018-09-20T07:19:44.612Z,50.22
2018-09-20T07:22:10.931Z,50.95
2018-09-20T07:24:37.364Z,49.55
2018-09-20T07:27:03.693Z,49.63
2018-09-20T07:29:30.013Z,50.09
2018-09-20T07:34:22.651Z,49.02
2018-09-20T07:36:48.965Z,48.24
2018-09-20T07:39:15.287Z,48.24
2018-09-20T07:41:41.610Z,47.65
2018-09-20T07:44:07.931Z,46.63
2018-09-20T07:46:34.235Z,46.72
2018-09-20T07:49:00.555Z,46.80
2018-09-20T07:51:26.868Z,45.78
2018-09-20T07:53:53.248Z,46.19
2018-09-20T07:56:19.530Z,46.51
2018-09-20T07:58:45.909Z,46.08
2018-09-20T08:01:12.215Z,45.41
2018-09-20T08:03:38.523Z,45.68
2018-09-20T08:06:04.851Z,45.32
2018-09-20T08:08:31.159Z,45.66
2018-09-20T08:10:57.472Z,45.39
2018-09-20T08:13:23.798Z,45.38
2018-09-20T08:15:50.541Z,45.08
2018-09-20T08:18:16.864Z,44.41
2018-09-20T08:20:43.179Z,43.96
2018-09-20T08:23:09.543Z,43.53
2018-09-20T08:25:35.898Z,43.80
2018-09-20T08:28:02.247Z,43.62
2018-09-20T08:30:28.606Z,42.63
2018-09-20T08:32:54.957Z,42.46
2018-09-20T08:35:21.270Z,41.60
2018-09-20T08:37:47.679Z,41.16
2018-09-20T08:40:13.903Z,42.19
2018-09-20T08:42:40.213Z,41.65
2018-09-20T08:45:06.533Z,40.68
2018-09-20T08:47:32.856Z,40.06
2018-09-20T08:49:59.213Z,40.26
2018-09-20T08:52:25.531Z,40.26
2018-09-20T08:54:51.849Z,38.35
2018-09-20T08:57:18.209Z,38.87
2018-09-20T08:59:44.525Z,38.77
2018-09-20T09:02:10.855Z,37.61
2018-09-20T09:04:37.206Z,36.50
2018-09-20T09:07:03.530Z,35.62
2018-09-20T09:09:29.846Z,36.36
2018-09-20T09:11:56.209Z,36.55
2018-09-20T09:14:22.482Z,35.79
2018-09-20T09:16:48.799Z,35.74
2018-09-20T09:19:15.116Z,35.72
2018-09-20T09:21:41.424Z,34.50
2018-09-20T09:24:07.741Z,34.44
2018-09-20T09:26:34.091Z,34.98
2018-09-20T09:29:00.409Z,34.38
2018-09-20T09:31:26.728Z,33.51
2018-09-20T09:33:53.040Z,33.13
2018-09-20T09:36:19.354Z,33.51
2018-09-20T09:38:45.669Z,33.47
2018-09-20T09:41:11.981Z,31.99
2018-09-20T09:43:38.298Z,33.50
2018-09-20T09:46:04.605Z,34.62
2018-09-20T09:48:30.950Z,34.01
2018-09-20T09:50:57.259Z,32.99
2018-09-20T09:53:23.575Z,30.84
2018-09-20T09:55:49.886Z,31.69
2018-09-20T09:58:16.202Z,31.34
2018-09-20T10:00:42.516Z,31.25
2018-09-20T10:03:08.824Z,31.11
2018-09-20T10:05:35.177Z,30.09
2018-09-20T10:08:01.498Z,30.77
2018-09-20T10:10:27.808Z,30.41
2018-09-20T10:12:54.130Z,28.25
2018-09-20T10:15:20.484Z,28.21
2018-09-20T10:17:46.815Z,27.75
2018-09-20T10:20:13.125Z,27.07
2018-09-20T10:22:39.448Z,27.13
2018-09-20T10:25:05.758Z,25.68
2018-09-20T10:27:32.074Z,26.16
2018-09-20T10:29:58.392Z,25.43
2018-09-20T10:32:24.710Z,25.67
2018-09-20T10:34:51.024Z,25.83
2018-09-20T10:37:17.359Z,25.58
2018-09-20T10:39:43.676Z,25.84
2018-09-20T10:42:10.035Z,25.57
2018-09-20T10:44:36.404Z,26.01
2018-09-20T10:47:02.727Z,25.98
2018-09-20T10:49:29.066Z,24.88
2018-09-20T10:51:55.387Z,24.79
2018-09-20T10:54:21.701Z,25.05
2018-09-20T10:56:48.011Z,25.07
2018-09-20T10:59:14.359Z,24.60
2018-09-20T11:01:40.665Z,25.54
2018-09-20T11:04:06.983Z,25.78
2018-09-20T11:06:33.708Z,26.24
2018-09-20T11:09:00.025Z,25.70
2018-09-20T11:11:26.338Z,25.95
2018-09-20T11:13:52.687Z,26.38
2018-09-20T11:16:19.041Z,26.84
2018-09-20T11:18:45.362Z,27.58
2018-09-20T11:21:11.673Z,26.99
2018-09-20T11:23:37.987Z,27.01
2018-09-20T11:26:04.364Z,27.83
2018-09-20T11:28:30.696Z,27.90
2018-09-20T11:30:57.008Z,27.47
2018-09-20T11:33:23.321Z,27.26
2018-09-20T11:35:49.649Z,27.42
2018-09-20T11:38:15.980Z,28.25
2018-09-20T11:40:42.311Z,28.04
2018-09-20T11:43:08.644Z,28.52
2018-09-20T11:45:34.961Z,28.46
2018-09-20T11:48:01.292Z,28.75
2018-09-20T11:50:27.608Z,28.31
2018-09-20T11:52:53.933Z,27.99
2018-09-20T11:55:20.268Z,28.38
2018-09-20T11:57:46.580Z,28.99
2018-09-20T12:00:12.891Z,29.08
2018-09-20T12:02:39.229Z,28.01
2018-09-20T12:05:05.559Z,27.82
2018-09-20T12:07:31.865Z,28.01
2018-09-20T12:09:58.205Z,27.25
2018-09-20T12:12:24.523Z,27.51
2018-09-20T12:14:50.858Z,27.37
2018-09-20T12:17:17.168Z,26.58
2018-09-20T12:19:43.515Z,26.26
2018-09-20T12:22:09.825Z,26.38
2018-09-20T12:24:36.136Z,27.21
2018-09-20T12:27:02.448Z,27.08
2018-09-20T12:29:28.785Z,27.26
2018-09-20T12:31:55.150Z,26.73
2018-09-20T12:34:21.475Z,26.55
2018-09-20T12:36:47.795Z,26.41
2018-09-20T12:39:14.103Z,26.86
2018-09-20T12:41:40.418Z,26.65
2018-09-20T12:44:06.774Z,25.90
2018-09-20T12:46:33.069Z,25.98
2018-09-20T12:48:59.376Z,25.71
2018-09-20T12:51:25.720Z,26.70
2018-09-20T12:53:52.063Z,27.62
2018-09-20T12:56:18.397Z,27.87
2018-09-20T12:58:44.728Z,28.17
2018-09-20T13:01:11.035Z,27.76
2018-09-20T13:03:37.349Z,27.70
2018-09-20T13:06:03.651Z,27.75
2018-09-20T13:08:29.985Z,26.93
2018-09-20T13:10:56.353Z,27.15
2018-09-20T13:13:22.661Z,27.34
2018-09-20T13:15:48.973Z,26.31
2018-09-20T13:18:15.311Z,26.47
2018-09-20T13:20:41.661Z,26.08
2018-09-20T13:23:07.973Z,26.46
2018-09-20T13:25:34.396Z,26.06
2018-09-20T13:28:00.743Z,26.50
2018-09-20T13:30:27.077Z,26.63
2018-09-20T13:32:53.401Z,26.12
2018-09-20T13:35:19.736Z,25.85
2018-09-20T13:37:46.111Z,26.21
2018-09-20T13:40:12.424Z,26.13
2018-09-20T13:42:38.760Z,26.54
2018-09-20T13:45:05.081Z,27.43
2018-09-20T13:47:31.417Z,27.47
2018-09-20T13:49:57.787Z,27.65
2018-09-20T13:52:24.123Z,27.92
2018-09-20T13:54:50.433Z,28.06
2018-09-20T13:57:16.764Z,28.31
2018-09-20T13:59:43.106Z,28.91
2018-09-20T14:02:09.427Z,29.01
2018-09-20T14:04:35.740Z,28.79
2018-09-20T14:07:02.054Z,28.62
2018-09-20T14:09:28.378Z,29.00
2018-09-20T14:11:54.687Z,29.27
2018-09-20T14:14:20.999Z,29.26
2018-09-20T14:16:47.333Z,29.39
2018-09-20T14:19:13.670Z,29.77
2018-09-20T14:21:39.996Z,29.75
2018-09-20T14:24:06.328Z,29.97
2018-09-20T14:26:32.661Z,30.55
2018-09-20T14:28:58.973Z,30.35
2018-09-20T14:31:25.309Z,30.83
2018-09-20T14:33:51.632Z,31.89
2018-09-20T14:36:18.117Z,32.42
2018-09-20T14:38:44.445Z,32.16
2018-09-20T14:41:10.756Z,32.55
2018-09-20T14:43:37.092Z,32.72
2018-09-20T14:46:03.429Z,33.23
2018-09-20T14:48:29.761Z,33.33
2018-09-20T14:50:56.097Z,33.54
2018-09-20T14:53:22.412Z,33.61
2018-09-20T14:55:48.728Z,33.83
2018-09-20T14:58:15.094Z,34.22
2018-09-20T15:00:41.416Z,34.12
2018-09-20T15:03:07.740Z,34.04
2018-09-20T15:05:34.054Z,34.54
2018-09-20T15:08:00.441Z,34.78
2018-09-20T15:10:26.705Z,35.00
2018-09-20T15:12:53.047Z,35.16
2018-09-20T15:15:19.377Z,35.17
2018-09-20T15:17:45.718Z,35.45
2018-09-20T15:20:12.043Z,35.85
2018-09-20T15:22:38.376Z,35.76
2018-09-20T15:25:04.759Z,36.16
2018-09-20T15:27:31.091Z,36.33
2018-09-20T15:29:57.420Z,36.37
2018-09-20T15:32:23.765Z,36.38
2018-09-20T15:34:50.049Z,36.54
2018-09-20T15:37:16.360Z,36.76
2018-09-20T15:39:42.709Z,36.81
2018-09-20T15:42:09.040Z,36.93
2018-09-20T15:44:35.418Z,37.16
2018-09-20T15:47:01.753Z,37.27
2018-09-20T15:49:28.065Z,37.46
2018-09-20T15:51:54.403Z,37.72
2018-09-20T15:54:20.713Z,37.82
2018-09-20T15:56:47.020Z,37.86
2018-09-20T15:59:13.333Z,37.87
2018-09-20T16:01:39.680Z,37.92
2018-09-20T16:04:06.243Z,38.13
2018-09-20T16:06:32.579Z,38.17
2018-09-20T16:08:58.883Z,38.19
2018-09-20T16:11:25.197Z,38.39
2018-09-20T16:13:51.504Z,38.80
2018-09-20T16:16:17.838Z,38.94
2018-09-20T16:18:44.147Z,38.85
2018-09-20T16:21:10.499Z,39.21
2018-09-20T16:23:36.846Z,39.27
2018-09-20T16:26:03.136Z,39.19
2018-09-20T16:28:29.457Z,39.23
2018-09-20T16:30:55.759Z,39.34
2018-09-20T16:33:22.066Z,39.50
2018-09-20T16:35:48.401Z,39.53
2018-09-20T16:38:14.754Z,39.72
2018-09-20T16:40:41.089Z,39.76
2018-09-20T16:43:07.439Z,39.84
2018-09-20T16:45:33.773Z,39.92
2018-09-20T16:48:00.083Z,40.16
2018-09-20T16:50:26.424Z,40.46
2018-09-20T16:52:52.809Z,40.68
2018-09-20T16:55:19.069Z,40.46
2018-09-20T16:57:45.402Z,40.59
2018-09-20T17:00:13.204Z,40.64
2018-09-20T17:02:39.525Z,40.74
2018-09-20T17:05:05.887Z,41.16
2018-09-20T17:07:32.183Z,41.69
2018-09-20T17:09:58.474Z,42.77
2018-09-20T17:12:24.832Z,42.63
2018-09-20T17:14:51.210Z,43.41
2018-09-20T17:17:17.503Z,44.31
2018-09-20T17:19:43.825Z,44.50
2018-09-20T17:22:10.131Z,44.94
2018-09-20T17:24:36.447Z,45.23
2018-09-20T17:27:02.762Z,45.43
2018-09-20T17:29:29.073Z,45.94
2018-09-20T17:31:55.387Z,46.23
2018-09-20T17:34:21.722Z,46.10
2018-09-20T17:36:48.065Z,46.46
2018-09-20T17:39:14.390Z,46.55
2018-09-20T17:41:40.719Z,46.61
2018-09-20T17:44:07.041Z,46.66
2018-09-20T17:46:33.356Z,46.93
2018-09-20T17:48:59.692Z,46.99
2018-09-20T17:51:26.019Z,46.83
2018-09-20T17:53:52.384Z,46.85
2018-09-20T17:56:18.655Z,46.64
2018-09-20T17:58:44.967Z,46.82
2018-09-20T18:01:11.285Z,46.77
2018-09-20T18:03:37.597Z,46.82
2018-09-20T18:06:03.919Z,46.85
2018-09-20T18:08:30.273Z,46.61
2018-09-20T18:10:56.676Z,46.74
2018-09-20T18:13:22.991Z,46.89
2018-09-20T18:15:49.303Z,47.21
2018-09-20T18:18:15.670Z,47.28
2018-09-20T18:20:41.939Z,47.33
2018-09-20T18:23:08.256Z,47.46
2018-09-20T18:25:34.584Z,47.62
2018-09-20T18:28:00.891Z,47.71
2018-09-20T18:30:27.212Z,47.80
2018-09-20T18:32:53.519Z,47.78
2018-09-20T18:35:19.835Z,47.49
2018-09-20T18:37:46.184Z,47.83
2018-09-20T18:40:12.549Z,48.03
2018-09-20T18:42:38.989Z,48.18
2018-09-20T18:45:05.223Z,47.94
2018-09-20T18:47:31.552Z,48.21
2018-09-20T18:49:57.870Z,48.17
2018-09-20T18:52:24.203Z,48.41
2018-09-20T18:54:50.516Z,48.66
2018-09-20T18:57:16.838Z,49.02
2018-09-20T18:59:43.168Z,49.35
2018-09-20T19:02:09.479Z,49.67
2018-09-20T19:04:35.846Z,49.94
2018-09-20T19:07:02.170Z,50.36
2018-09-20T19:09:28.494Z,50.74
2018-09-20T19:11:54.813Z,51.37
2018-09-20T19:14:21.123Z,51.84
2018-09-20T19:16:47.442Z,52.56
2018-09-20T19:19:13.798Z,53.19
2018-09-20T19:21:40.121Z,53.64
2018-09-20T19:24:06.428Z,53.77
2018-09-20T19:26:32.742Z,53.99
2018-09-20T19:28:59.058Z,53.95
2018-09-20T19:31:25.372Z,53.66
2018-09-20T19:33:51.695Z,53.52
2018-09-20T19:36:18.015Z,52.83
2018-09-20T19:38:44.355Z,52.83
2018-09-20T19:41:10.678Z,53.18
2018-09-20T19:43:49.107Z,52.73
2018-09-20T19:46:15.468Z,52.55
2018-09-20T19:48:41.786Z,51.53
2018-09-20T19:51:08.100Z,50.90
2018-09-20T19:53:34.434Z,50.62
2018-09-20T19:56:00.752Z,49.86
2018-09-20T19:58:27.063Z,49.20
2018-09-20T20:00:53.403Z,49.32
2018-09-20T20:03:19.717Z,48.94
2018-09-20T20:05:46.028Z,49.09
2018-09-20T20:08:12.348Z,49.32
2018-09-20T20:10:38.662Z,49.68
2018-09-20T20:13:04.964Z,49.91
2018-09-20T20:15:31.285Z,50.26
2018-09-20T20:17:57.615Z,50.61
2018-09-20T20:20:23.960Z,50.78
2018-09-20T20:22:50.265Z,50.41
2018-09-20T20:25:16.573Z,50.19
2018-09-20T20:27:42.929Z,49.77
2018-09-20T20:30:09.215Z,49.53
2018-09-20T20:32:35.557Z,49.38
2018-09-20T20:35:01.862Z,49.42
2018-09-20T20:37:28.204Z,49.25
2018-09-20T20:39:54.549Z,48.93
2018-09-20T20:42:20.839Z,48.85
2018-09-20T20:44:47.199Z,48.82
2018-09-20T20:47:13.532Z,48.89
2018-09-20T20:49:39.885Z,49.07
2018-09-20T20:52:06.216Z,49.55
2018-09-20T20:54:32.532Z,49.88
2018-09-20T20:56:58.874Z,50.18
2018-09-20T20:59:25.193Z,50.41
2018-09-20T21:01:51.523Z,50.57
2018-09-20T21:04:17.870Z,50.76
2018-09-20T21:06:44.200Z,50.82
2018-09-20T21:09:10.522Z,50.90
2018-09-20T21:11:36.832Z,51.28
2018-09-20T21:14:03.142Z,51.28
2018-09-20T21:16:29.473Z,51.14
2018-09-20T21:18:55.813Z,51.24
2018-09-20T21:21:22.125Z,50.89
2018-09-20T21:23:48.440Z,50.73
2018-09-20T21:26:14.812Z,50.83
2018-09-20T21:28:41.159Z,50.61
2018-09-20T21:31:07.477Z,50.65
2018-09-20T21:33:33.789Z,50.60
2018-09-20T21:36:00.097Z,50.88
2018-09-20T21:38:26.416Z,50.69
2018-09-20T21:40:52.788Z,50.80
2018-09-20T21:43:19.109Z,50.93
2018-09-20T21:45:45.433Z,50.31
2018-09-20T21:48:11.747Z,50.42
2018-09-20T21:50:38.068Z,50.39
2018-09-20T21:53:04.391Z,50.55
2018-09-20T21:55:30.707Z,50.62
2018-09-20T21:57:57.028Z,50.66
2018-09-20T22:00:23.354Z,50.76
2018-09-20T22:02:49.658Z,50.96
2018-09-20T22:05:15.961Z,51.28
2018-09-20T22:07:42.268Z,51.54
2018-09-20T22:10:08.572Z,51.63
2018-09-20T22:12:34.867Z,51.74
2018-09-20T22:15:01.172Z,51.90
2018-09-20T22:17:27.474Z,52.00
2018-09-20T22:19:53.776Z,52.34
2018-09-20T22:22:20.080Z,52.61
2018-09-20T22:24:46.392Z,52.72
2018-09-20T22:27:12.685Z,53.00
2018-09-20T22:29:39.028Z,53.13
2018-09-20T22:32:05.297Z,53.35
2018-09-20T22:34:31.593Z,53.67
2018-09-20T22:36:57.889Z,53.89
2018-09-20T22:39:24.204Z,54.03
2018-09-20T22:41:50.506Z,54.45
2018-09-20T22:44:16.809Z,54.46
2018-09-20T22:46:43.105Z,54.56
2018-09-20T22:49:09.415Z,54.69
2018-09-20T22:51:35.713Z,54.81
2018-09-20T22:54:02.010Z,54.78
2018-09-20T22:56:28.305Z,55.08
2018-09-20T22:58:54.639Z,55.19
2018-09-20T23:01:20.952Z,55.42
2018-09-20T23:03:47.252Z,55.58
2018-09-20T23:06:13.581Z,55.48
2018-09-20T23:08:39.898Z,55.79
2018-09-20T23:11:06.186Z,55.88
2018-09-20T23:13:32.472Z,55.64
2018-09-20T23:15:58.771Z,55.44
2018-09-20T23:18:25.066Z,55.70
2018-09-20T23:20:51.374Z,56.07
2018-09-20T23:23:17.669Z,55.65
2018-09-20T23:25:43.969Z,55.81
2018-09-20T23:28:10.316Z,55.89
2018-09-20T23:30:36.611Z,56.08
2018-09-20T23:33:02.904Z,56.25
2018-09-20T23:35:29.209Z,56.48
2018-09-20T23:37:57.637Z,56.58
2018-09-20T23:40:21.818Z,57.00
2018-09-20T23:42:48.115Z,57.17
2018-09-20T23:45:14.455Z,57.83
2018-09-20T23:47:40.757Z,57.88
2018-09-20T23:50:07.078Z,57.99
2018-09-20T23:52:33.398Z,58.72
2018-09-20T23:54:59.721Z,58.88
2018-09-20T23:57:26.028Z,58.98
2018-09-20T23:59:52.345Z,59.33
